createdAt,value
2022-11-27T00:01:36.488Z,2.93
2022-11-27T00:04:04.931Z,3.00
2022-11-27T00:06:34.078Z,3.37
2022-11-27T00:09:05.963Z,3.37
2022-11-27T00:11:33.618Z,3.80
2022-11-27T00:14:01.789Z,2.60
2022-11-27T00:16:29.463Z,2.87
2022-11-27T00:18:56.704Z,3.03
2022-11-27T00:21:30.964Z,2.47
2022-11-27T00:24:01.415Z,2.97
2022-11-27T00:26:34.597Z,2.90
2022-11-27T00:29:04.555Z,3.50
2022-11-27T00:31:34.363Z,3.77
2022-11-27T00:34:04.969Z,3.43
2022-11-27T00:36:35.001Z,3.10
2022-11-27T00:39:02.381Z,2.97
2022-11-27T00:41:31.090Z,2.70
2022-11-27T00:43:59.023Z,2.93
2022-11-27T00:46:30.516Z,2.77
2022-11-27T00:49:03.671Z,2.80
2022-11-27T00:51:31.195Z,3.03
2022-11-27T00:53:58.737Z,3.10
2022-11-27T00:56:29.714Z,3.00
2022-11-27T00:58:56.778Z,2.20
2022-11-27T01:01:43.982Z,2.37
2022-11-27T01:04:24.234Z,2.23
2022-11-27T01:06:50.990Z,3.07
2022-11-27T01:09:23.014Z,2.60
2022-11-27T01:11:49.682Z,2.53
2022-11-27T01:14:18.276Z,2.40
2022-11-27T01:16:45.422Z,2.87
2022-11-27T01:19:14.476Z,2.97
2022-11-27T01:21:41.672Z,2.67
2022-11-27T01:24:12.137Z,2.43
2022-11-27T01:26:39.164Z,2.57
2022-11-27T01:29:06.099Z,2.60
2022-11-27T01:31:34.795Z,2.63
2022-11-27T01:34:08.975Z,2.57
2022-11-27T01:36:36.496Z,2.93
2022-11-27T01:39:04.867Z,2.40
2022-11-27T01:41:43.873Z,2.77
2022-11-27T01:44:25.894Z,2.43
2022-11-27T01:47:05.211Z,2.60
2022-11-27T01:49:55.394Z,2.87
2022-11-27T01:52:33.398Z,2.87
2022-11-27T01:55:23.691Z,3.13
2022-11-27T01:58:00.938Z,3.03
2022-11-27T02:00:28.254Z,2.67
2022-11-27T02:02:55.213Z,2.53
2022-11-27T02:05:28.623Z,2.43
2022-11-27T02:08:05.899Z,2.77
2022-11-27T02:10:50.183Z,2.47
2022-11-27T02:13:51.136Z,2.70
2022-11-27T02:16:36.627Z,2.37
2022-11-27T02:19:59.242Z,1.83
2022-11-27T02:22:51.533Z,2.50
2022-11-27T02:26:22.584Z,2.63
2022-11-27T02:29:10.556Z,2.97
2022-11-27T02:32:02.314Z,2.37
2022-11-27T02:34:52.490Z,2.47
2022-11-27T02:37:46.574Z,2.47
2022-11-27T02:40:40.830Z,2.70
2022-11-27T02:43:16.752Z,2.33
2022-11-27T02:45:48.947Z,2.37
2022-11-27T02:48:28.007Z,2.53
2022-11-27T02:50:55.919Z,2.53
2022-11-27T02:53:30.842Z,3.03
2022-11-27T02:56:00.731Z,3.23
2022-11-27T02:58:29.800Z,2.90
2022-11-27T03:00:57.905Z,3.63
2022-11-27T03:03:34.309Z,2.83
2022-11-27T03:06:26.411Z,3.17
2022-11-27T03:09:10.479Z,2.77
2022-11-27T03:11:37.750Z,3.57
2022-11-27T03:14:09.766Z,3.03
2022-11-27T03:17:06.691Z,3.80
2022-11-27T03:20:13.154Z,3.10
2022-11-27T03:22:40.070Z,3.40
2022-11-27T03:25:07.465Z,3.43
2022-11-27T03:27:49.066Z,3.27
2022-11-27T03:30:16.859Z,3.50
2022-11-27T03:32:44.470Z,3.60
2022-11-27T03:35:16.257Z,3.50
2022-11-27T03:37:43.799Z,3.17
2022-11-27T03:40:13.454Z,3.90
2022-11-27T03:43:13.480Z,3.33
2022-11-27T03:46:18.973Z,3.40
2022-11-27T03:49:24.391Z,2.87
2022-11-27T03:52:14.387Z,2.70
2022-11-27T03:55:01.601Z,3.33
2022-11-27T03:57:46.202Z,3.70
2022-11-27T04:00:13.966Z,3.33
2022-11-27T04:02:51.019Z,3.93
2022-11-27T04:05:19.141Z,3.27
2022-11-27T04:07:46.591Z,3.30
2022-11-27T04:10:14.728Z,3.10
2022-11-27T04:12:41.789Z,3.13
2022-11-27T04:15:12.614Z,3.57
2022-11-27T04:17:39.596Z,3.83
2022-11-27T04:20:10.157Z,3.57
2022-11-27T04:22:36.882Z,3.43
2022-11-27T04:25:04.200Z,3.80
2022-11-27T04:27:30.936Z,3.43
2022-11-27T04:29:57.612Z,4.07
2022-11-27T04:32:25.464Z,3.80
2022-11-27T04:34:52.726Z,4.00
2022-11-27T04:37:19.464Z,3.60
2022-11-27T04:39:46.289Z,4.13
2022-11-27T04:42:13.031Z,3.50
2022-11-27T04:44:39.987Z,3.77
2022-11-27T04:47:07.018Z,3.70
2022-11-27T04:49:34.027Z,3.90
2022-11-27T04:52:01.888Z,4.27
2022-11-27T04:54:28.602Z,3.27
2022-11-27T04:56:55.287Z,3.83
2022-11-27T04:59:22.448Z,3.73
2022-11-27T05:01:50.290Z,3.97
2022-11-27T05:04:17.110Z,4.10
2022-11-27T05:06:43.858Z,3.97
2022-11-27T05:09:10.622Z,3.70
2022-11-27T05:11:37.423Z,3.80
2022-11-27T05:14:16.736Z,4.27
2022-11-27T05:16:48.767Z,3.37
2022-11-27T05:19:17.584Z,3.10
2022-11-27T05:21:46.337Z,3.30
2022-11-27T05:24:14.622Z,3.70
2022-11-27T05:26:42.500Z,4.33
2022-11-27T05:29:11.242Z,3.57
2022-11-27T05:31:38.668Z,3.43
2022-11-27T05:34:06.006Z,3.27
2022-11-27T05:36:36.166Z,3.90
2022-11-27T05:39:08.848Z,3.90
2022-11-27T05:41:38.374Z,3.07
2022-11-27T05:44:06.524Z,3.80
2022-11-27T05:46:33.735Z,3.20
2022-11-27T05:49:00.545Z,3.13
2022-11-27T05:51:27.399Z,3.03
2022-11-27T05:53:54.124Z,3.47
2022-11-27T05:56:21.090Z,3.10
2022-11-27T05:58:49.092Z,3.50
2022-11-27T06:01:18.162Z,3.33
2022-11-27T06:03:45.116Z,3.07
2022-11-27T06:06:17.171Z,3.30
2022-11-27T06:08:45.302Z,2.90
2022-11-27T06:11:17.988Z,3.13
2022-11-27T06:13:46.474Z,2.93
2022-11-27T06:16:21.260Z,3.50
2022-11-27T06:18:55.327Z,2.57
2022-11-27T06:21:24.379Z,2.77
2022-11-27T06:24:10.745Z,3.00
2022-11-27T06:26:37.601Z,2.60
2022-11-27T06:29:04.981Z,2.97
2022-11-27T06:31:33.445Z,2.80
2022-11-27T06:34:00.971Z,2.80
2022-11-27T06:36:33.025Z,2.70
2022-11-27T06:39:00.256Z,3.03
2022-11-27T06:41:28.786Z,2.63
2022-11-27T06:43:59.781Z,3.23
2022-11-27T06:46:28.215Z,2.60
2022-11-27T06:48:55.987Z,2.73
2022-11-27T06:51:28.420Z,2.53
2022-11-27T06:53:56.820Z,2.90
2022-11-27T06:56:29.263Z,3.03
2022-11-27T06:58:59.157Z,2.60
2022-11-27T07:01:28.933Z,2.73
2022-11-27T07:03:56.691Z,2.40
2022-11-27T07:06:26.724Z,3.83
2022-11-27T07:08:54.919Z,3.30
2022-11-27T07:11:25.842Z,2.43
2022-11-27T07:13:58.659Z,3.03
2022-11-27T07:16:35.632Z,2.97
2022-11-27T07:19:07.434Z,2.93
2022-11-27T07:21:38.119Z,3.17
2022-11-27T07:24:05.194Z,2.87
2022-11-27T07:26:32.176Z,2.40
2022-11-27T07:28:58.972Z,2.43
2022-11-27T07:31:29.027Z,2.40
2022-11-27T07:33:56.913Z,3.20
2022-11-27T07:36:27.774Z,2.27
2022-11-27T07:38:54.636Z,2.90
2022-11-27T07:41:22.169Z,3.37
2022-11-27T07:43:48.983Z,2.43
2022-11-27T07:46:23.031Z,2.50
2022-11-27T07:48:51.023Z,2.70
2022-11-27T07:51:20.330Z,2.87
2022-11-27T07:53:47.304Z,2.87
2022-11-27T07:56:15.881Z,3.43
2022-11-27T07:59:25.272Z,3.13
2022-11-27T08:01:54.450Z,3.13
2022-11-27T08:04:21.256Z,2.90
2022-11-27T08:06:50.081Z,2.17
2022-11-27T08:09:16.796Z,2.87
2022-11-27T08:11:43.518Z,2.60
2022-11-27T08:14:12.931Z,3.30
2022-11-27T08:16:39.804Z,2.90
2022-11-27T08:19:06.648Z,2.97
2022-11-27T08:21:33.420Z,2.73
2022-11-27T08:24:00.109Z,3.00
2022-11-27T08:26:28.146Z,2.97
2022-11-27T08:28:59.446Z,2.57
2022-11-27T08:31:26.446Z,2.73
2022-11-27T08:33:53.208Z,2.63
2022-11-27T08:36:22.373Z,2.80
2022-11-27T08:38:49.150Z,2.57
2022-11-27T08:41:15.940Z,2.77
2022-11-27T08:43:42.771Z,2.67
2022-11-27T08:46:11.590Z,3.07
2022-11-27T08:48:38.644Z,2.63
2022-11-27T08:51:14.676Z,2.43
2022-11-27T08:53:41.801Z,2.83
2022-11-27T08:56:24.762Z,2.40
2022-11-27T08:58:52.047Z,4.05
2022-11-27T09:01:31.045Z,4.15
2022-11-27T09:03:58.487Z,2.80
2022-11-27T09:06:34.614Z,2.90
2022-11-27T09:09:05.277Z,3.23
2022-11-27T09:11:34.429Z,3.23
2022-11-27T09:14:03.576Z,2.33
2022-11-27T09:16:31.134Z,2.90
2022-11-27T09:18:58.660Z,3.20
2022-11-27T09:21:32.667Z,2.67
2022-11-27T09:24:01.816Z,2.87
2022-11-27T09:26:30.489Z,3.37
2022-11-27T09:28:59.048Z,2.87
2022-11-27T09:31:26.866Z,3.00
2022-11-27T09:33:56.505Z,2.70
2022-11-27T09:36:26.122Z,2.50
2022-11-27T09:38:53.922Z,2.50
2022-11-27T09:41:45.536Z,3.10
2022-11-27T09:44:30.715Z,3.23
2022-11-27T09:47:17.428Z,2.63
2022-11-27T09:50:13.734Z,3.23
2022-11-27T09:52:58.565Z,3.17
2022-11-27T09:55:42.206Z,2.83
2022-11-27T09:58:23.846Z,3.17
2022-11-27T10:00:50.586Z,3.23
2022-11-27T10:03:25.754Z,2.90
2022-11-27T10:06:34.755Z,3.90
2022-11-27T10:09:23.928Z,2.83
2022-11-27T10:12:18.267Z,3.23
2022-11-27T10:15:21.935Z,3.73
2022-11-27T10:18:17.571Z,3.20
2022-11-27T10:20:54.255Z,3.57
2022-11-27T10:23:24.597Z,3.37
2022-11-27T10:26:07.560Z,2.77
2022-11-27T10:28:50.067Z,3.50
2022-11-27T10:31:40.037Z,3.60
2022-11-27T10:34:40.367Z,4.13
2022-11-27T10:37:20.387Z,3.60
2022-11-27T10:40:13.449Z,3.40
2022-11-27T10:43:10.701Z,3.00
2022-11-27T10:45:52.258Z,4.30
2022-11-27T10:48:21.395Z,3.07
2022-11-27T10:50:48.973Z,3.67
2022-11-27T10:53:32.052Z,3.40
2022-11-27T10:56:15.484Z,3.53
2022-11-27T10:59:05.805Z,3.27
2022-11-27T11:01:53.347Z,3.67
2022-11-27T11:04:38.797Z,3.40
2022-11-27T11:07:28.155Z,3.40
2022-11-27T11:09:56.328Z,3.57
2022-11-27T11:12:24.972Z,3.13
2022-11-27T11:14:54.309Z,3.27
2022-11-27T11:17:37.186Z,4.17
2022-11-27T11:20:22.304Z,4.37
2022-11-27T11:22:50.807Z,4.60
2022-11-27T11:25:23.470Z,4.00
2022-11-27T11:27:52.478Z,3.93
2022-11-27T11:30:28.331Z,3.60
2022-11-27T11:33:03.758Z,3.10
2022-11-27T11:35:37.058Z,3.70
2022-11-27T11:38:16.694Z,3.73
2022-11-27T11:41:05.848Z,3.57
2022-11-27T11:43:40.296Z,3.50
2022-11-27T11:46:23.704Z,4.13
2022-11-27T11:49:31.719Z,3.70
2022-11-27T11:52:23.478Z,3.73
2022-11-27T11:55:19.057Z,4.07
2022-11-27T11:58:28.769Z,3.80
2022-11-27T12:01:26.414Z,3.63
2022-11-27T12:04:51.930Z,3.83
2022-11-27T12:07:52.484Z,3.57
2022-11-27T12:10:29.818Z,3.93
2022-11-27T12:13:22.122Z,3.73
2022-11-27T12:16:04.600Z,3.90
2022-11-27T12:19:23.195Z,4.27
2022-11-27T12:22:22.012Z,3.97
2022-11-27T12:25:17.855Z,4.03
2022-11-27T12:28:06.127Z,4.33
2022-11-27T12:31:19.975Z,4.30
2022-11-27T12:34:06.015Z,4.03
2022-11-27T12:37:12.521Z,4.23
2022-11-27T12:40:17.643Z,3.70
2022-11-27T12:43:04.746Z,3.90
2022-11-27T12:45:42.995Z,3.73
2022-11-27T12:48:38.867Z,4.57
2022-11-27T12:51:22.123Z,4.10
2022-11-27T12:54:10.021Z,4.37
2022-11-27T12:57:02.235Z,4.03
2022-11-27T12:59:43.511Z,3.40
2022-11-27T13:02:34.386Z,3.83
2022-11-27T13:05:11.743Z,4.50
2022-11-27T13:08:26.605Z,4.27
2022-11-27T13:11:10.030Z,3.77
2022-11-27T13:13:47.964Z,4.30
2022-11-27T13:16:41.152Z,3.70
2022-11-27T13:19:30.180Z,3.97
2022-11-27T13:22:00.117Z,4.10
2022-11-27T13:24:29.040Z,4.00
2022-11-27T13:27:15.452Z,5.27
2022-11-27T13:29:58.976Z,4.73
2022-11-27T13:32:46.530Z,4.70
2022-11-27T13:35:38.888Z,4.47
2022-11-27T13:38:13.610Z,3.93
2022-11-27T13:40:46.368Z,4.07
2022-11-27T13:43:51.846Z,3.20
2022-11-27T13:46:29.335Z,4.47
2022-11-27T13:49:05.904Z,3.20
2022-11-27T13:51:40.542Z,3.93
2022-11-27T13:54:21.276Z,3.30
2022-11-27T13:56:51.309Z,3.57
2022-11-27T13:59:23.289Z,3.53
2022-11-27T14:02:05.373Z,3.73
2022-11-27T14:04:34.828Z,3.93
2022-11-27T14:07:11.707Z,3.73
2022-11-27T14:09:45.154Z,3.27
2022-11-27T14:12:33.354Z,4.03
2022-11-27T14:15:07.505Z,3.60
2022-11-27T14:17:52.829Z,3.83
2022-11-27T14:20:32.348Z,4.10
2022-11-27T14:23:11.803Z,3.57
2022-11-27T14:25:40.478Z,3.37
2022-11-27T14:28:21.566Z,4.00
2022-11-27T14:30:56.842Z,3.90
2022-11-27T14:33:27.860Z,3.67
2022-11-27T14:36:06.670Z,3.83
2022-11-27T14:38:35.551Z,3.97
2022-11-27T14:41:18.582Z,4.10
2022-11-27T14:43:46.024Z,4.30
2022-11-27T14:46:22.390Z,4.87
2022-11-27T14:48:58.277Z,4.53
2022-11-27T14:51:32.773Z,4.10
2022-11-27T14:54:23.401Z,4.10
2022-11-27T14:56:50.599Z,4.13
2022-11-27T14:59:23.195Z,4.07
2022-11-27T15:02:17.676Z,4.60
2022-11-27T15:04:46.605Z,4.93
2022-11-27T15:07:18.303Z,4.40
2022-11-27T15:09:53.730Z,5.13
2022-11-27T15:12:31.766Z,4.90
2022-11-27T15:15:03.333Z,4.40
2022-11-27T15:17:34.497Z,5.20
2022-11-27T15:20:11.678Z,4.80
2022-11-27T15:22:38.735Z,5.03
2022-11-27T15:25:27.666Z,5.27
2022-11-27T15:27:54.569Z,7.93
2022-11-27T15:30:21.607Z,6.00
2022-11-27T15:32:53.067Z,5.50
2022-11-27T15:35:23.975Z,7.40
2022-11-27T15:37:54.114Z,5.53
2022-11-27T15:40:36.247Z,6.13
2022-11-27T15:43:15.947Z,5.73
2022-11-27T15:45:44.691Z,5.10
2022-11-27T15:48:20.959Z,5.03
2022-11-27T15:50:51.928Z,5.60
2022-11-27T15:53:18.937Z,5.20
2022-11-27T15:55:45.736Z,5.30
2022-11-27T15:58:12.566Z,5.00
2022-11-27T16:00:40.544Z,5.27
2022-11-27T16:03:07.301Z,4.80
2022-11-27T16:05:34.039Z,5.37
2022-11-27T16:08:01.035Z,5.60
2022-11-27T16:10:27.931Z,4.73
2022-11-27T16:12:55.342Z,5.27
2022-11-27T16:15:23.580Z,5.00
2022-11-27T16:17:51.601Z,5.03
2022-11-27T16:20:18.574Z,5.33
2022-11-27T16:22:45.298Z,4.87
2022-11-27T16:25:12.021Z,4.97
2022-11-27T16:27:38.878Z,6.30
2022-11-27T16:30:07.952Z,5.20
2022-11-27T16:32:40.406Z,5.73
2022-11-27T16:35:10.723Z,5.37
2022-11-27T16:37:37.411Z,4.83
2022-11-27T16:40:05.215Z,4.90
2022-11-27T16:42:31.947Z,4.73
2022-11-27T16:44:58.646Z,5.13
2022-11-27T16:47:30.529Z,5.00
2022-11-27T16:50:00.273Z,5.37
2022-11-27T16:52:27.030Z,5.17
2022-11-27T16:54:55.421Z,4.87
2022-11-27T16:57:22.311Z,4.73
2022-11-27T16:59:50.735Z,4.70
2022-11-27T17:02:17.622Z,4.87
2022-11-27T17:04:45.097Z,5.53
2022-11-27T17:07:12.002Z,5.00
2022-11-27T17:09:39.118Z,5.10
2022-11-27T17:12:07.849Z,4.53
2022-11-27T17:14:36.840Z,4.77
2022-11-27T17:17:06.122Z,4.63
2022-11-27T17:19:34.094Z,4.37
2022-11-27T17:22:01.301Z,5.10
2022-11-27T17:24:28.892Z,5.00
2022-11-27T17:26:55.905Z,5.30
2022-11-27T17:29:23.120Z,4.97
2022-11-27T17:31:50.604Z,4.30
2022-11-27T17:34:18.526Z,4.67
2022-11-27T17:36:46.544Z,4.80
2022-11-27T17:39:15.036Z,4.63
2022-11-27T17:41:45.072Z,4.90
2022-11-27T17:44:13.149Z,4.80
2022-11-27T17:46:41.417Z,4.20
2022-11-27T17:49:08.600Z,4.40
2022-11-27T17:51:36.911Z,4.70
2022-11-27T17:54:05.387Z,4.33
2022-11-27T17:56:34.007Z,5.77
2022-11-27T17:59:00.820Z,5.20
2022-11-27T18:01:29.634Z,5.20
2022-11-27T18:04:03.824Z,5.00
2022-11-27T18:06:31.610Z,4.83
2022-11-27T18:08:58.815Z,4.90
2022-11-27T18:11:29.889Z,4.73
2022-11-27T18:13:56.862Z,5.83
2022-11-27T18:16:31.364Z,5.53
2022-11-27T18:19:01.783Z,5.23
2022-11-27T18:21:30.959Z,5.60
2022-11-27T18:29:34.329Z,5.70
2022-11-27T18:32:01.261Z,5.67
2022-11-27T18:34:28.227Z,4.80
2022-11-27T18:36:58.383Z,5.03
2022-11-27T18:39:26.001Z,5.07
2022-11-27T18:41:52.998Z,5.10
2022-11-27T18:44:19.967Z,5.77
2022-11-27T18:46:46.712Z,5.20
2022-11-27T18:49:13.441Z,5.37
2022-11-27T18:51:40.602Z,5.20
2022-11-27T18:54:07.404Z,5.53
2022-11-27T18:56:34.247Z,5.00
2022-11-27T18:59:06.034Z,5.27
2022-11-27T19:01:41.531Z,5.37
2022-11-27T19:04:11.742Z,5.47
2022-11-27T19:06:42.021Z,4.67
2022-11-27T19:09:11.447Z,5.73
2022-11-27T19:11:40.692Z,5.70
2022-11-27T19:14:08.787Z,5.13
2022-11-27T19:16:44.304Z,5.33
2022-11-27T19:19:52.431Z,5.13
2022-11-27T19:22:00.751Z,5.17
2022-11-27T19:24:27.631Z,5.03
2022-11-27T19:26:57.699Z,5.20
2022-11-27T19:29:24.497Z,5.60
2022-11-27T19:31:52.100Z,4.83
2022-11-27T19:34:19.273Z,5.13
2022-11-27T19:36:46.083Z,6.20
2022-11-27T19:39:14.815Z,5.93
2022-11-27T19:41:43.325Z,5.20
2022-11-27T19:44:12.950Z,4.73
2022-11-27T19:46:41.052Z,5.40
2022-11-27T19:49:14.067Z,5.20
2022-11-27T19:51:41.420Z,5.00
2022-11-27T19:54:10.848Z,6.07
2022-11-27T19:56:39.762Z,4.93
2022-11-27T19:59:07.128Z,5.03
2022-11-27T20:01:34.166Z,6.13
2022-11-27T20:04:03.157Z,5.47
2022-11-27T20:06:30.192Z,5.20
2022-11-27T20:09:03.527Z,5.10
2022-11-27T20:11:34.821Z,5.47
2022-11-27T20:14:04.227Z,5.20
2022-11-27T20:16:32.210Z,5.07
2022-11-27T20:18:59.138Z,4.37
2022-11-27T20:21:28.089Z,5.00
2022-11-27T20:23:56.840Z,5.33
2022-11-27T20:26:29.935Z,4.97
2022-11-27T20:28:57.642Z,5.07
2022-11-27T20:31:29.716Z,5.30
2022-11-27T20:34:00.751Z,4.90
2022-11-27T20:36:30.076Z,5.07
2022-11-27T20:38:59.391Z,5.10
2022-11-27T20:41:27.227Z,5.33
2022-11-27T20:43:57.340Z,5.13
2022-11-27T20:46:24.755Z,4.93
2022-11-27T20:48:53.891Z,4.80
2022-11-27T20:51:31.203Z,5.30
2022-11-27T20:54:01.070Z,5.10
2022-11-27T20:56:29.816Z,5.27
2022-11-27T20:58:57.887Z,4.93
2022-11-27T21:01:36.348Z,5.10
2022-11-27T21:04:10.867Z,4.37
2022-11-27T21:06:43.857Z,4.67
2022-11-27T21:09:12.199Z,5.03
2022-11-27T21:11:38.982Z,4.40
2022-11-27T21:14:11.652Z,5.13
2022-11-27T21:16:46.732Z,5.17
2022-11-27T21:19:25.287Z,5.00
2022-11-27T21:21:54.511Z,4.47
2022-11-27T21:24:23.048Z,4.27
2022-11-27T21:26:49.937Z,4.73
2022-11-27T21:29:17.383Z,4.93
2022-11-27T21:31:47.102Z,5.00
2022-11-27T21:34:15.614Z,5.23
2022-11-27T21:36:42.414Z,4.83
2022-11-27T21:39:20.604Z,4.87
2022-11-27T21:41:49.643Z,4.80
2022-11-27T21:44:18.156Z,4.40
2022-11-27T21:46:46.493Z,5.23
2022-11-27T21:49:16.818Z,4.73
2022-11-27T21:51:43.719Z,4.90
2022-11-27T21:54:13.537Z,5.03
2022-11-27T21:56:45.703Z,5.00
2022-11-27T21:59:14.286Z,4.67
2022-11-27T22:01:41.209Z,4.53
2022-11-27T22:04:07.986Z,5.17
2022-11-27T22:06:42.050Z,4.70
2022-11-27T22:09:14.998Z,5.53
2022-11-27T22:11:42.883Z,4.70
2022-11-27T22:14:10.296Z,6.30
2022-11-27T22:16:44.835Z,5.10
2022-11-27T22:19:16.070Z,5.00
2022-11-27T22:21:45.125Z,5.23
2022-11-27T22:24:16.765Z,4.73
2022-11-27T22:26:46.130Z,4.63
2022-11-27T22:29:12.901Z,5.20
2022-11-27T22:31:39.662Z,4.67
2022-11-27T22:34:06.398Z,5.93
2022-11-27T22:36:35.225Z,4.53
2022-11-27T22:39:07.223Z,5.20
2022-11-27T22:41:37.080Z,4.87
2022-11-27T22:44:13.071Z,4.77
2022-11-27T22:46:42.122Z,5.40
2022-11-27T22:49:13.057Z,4.93
2022-11-27T22:51:44.662Z,5.30
2022-11-27T22:54:15.427Z,5.33
2022-11-27T22:56:42.889Z,5.20
2022-11-27T23:01:57.148Z,4.70
2022-11-27T23:04:23.870Z,5.73
2022-11-27T23:06:50.635Z,4.90
2022-11-27T23:09:18.885Z,4.43
2022-11-27T23:11:48.282Z,4.70
2022-11-27T23:14:15.718Z,5.20
2022-11-27T23:16:42.762Z,4.70
2022-11-27T23:19:11.251Z,6.30
2022-11-27T23:21:38.994Z,5.27
2022-11-27T23:24:15.935Z,4.57
2022-11-27T23:26:43.379Z,5.03
2022-11-27T23:29:10.331Z,4.70
2022-11-27T23:31:37.136Z,4.93
2022-11-27T23:34:09.690Z,4.57
2022-11-27T23:36:37.012Z,5.10
2022-11-27T23:39:07.527Z,4.80
2022-11-27T23:41:34.974Z,5.17
2022-11-27T23:44:02.131Z,5.40
2022-11-27T23:46:30.626Z,5.07
2022-11-27T23:49:00.009Z,4.70
2022-11-27T23:51:30.876Z,5.03
2022-11-27T23:53:58.967Z,4.70
2022-11-27T23:56:32.091Z,5.50
2022-11-27T23:59:00.953Z,5.07
